Terminal Aerodrome Forecast
Issued by NWS Binghamton, NY

Home | Current Version | Previous Version | Text Only | Print | Product List | Glossary On
Versions: 1 2 3 4 5 6 7 8 9 10 11 12 13 14 15 16 17
000
FTUS41 KBGM 061120
TAFSYR
TAF
KSYR 061120Z 0612/0712 36007KT P6SM SCT050 OVC100
     FM062200 04008KT P6SM -SHRA OVC050
      TEMPO 0623/0703 5SM -SHRA OVC030
     FM070300 11003KT P6SM -SHRA OVC018
     FM070700 11004KT P6SM BKN020=

USA.gov is the U.S. government's official web portal to all federal, state and local government web resources and services.